Time;durP1;ratioP1;P1;durP2;ratioP2;P2;SDS_P1;SDS_P2;PMS_P1;PMS_P2;Temp;Humidity;BMP_temperature;BMP_pressure;BME280_temperature;BME280_humidity;BME280_pressure;Samples;Min_cycle;Max_cycle;Signal;HPM_P1;HPM_P2
2023/10/05 00:04:26;;;;;;;3.72;1.27;;;13.30;97.50;;;;;;5039251;28;20068;-71
2023/10/05 00:06:54;;;;;;;3.15;1.08;;;13.30;99.30;;;;;;5039216;28;20043;-71
2023/10/05 00:09:20;;;;;;;1.80;0.88;;;13.20;99.10;;;;;;5038921;28;20553;-71
2023/10/05 00:11:46;;;;;;;3.20;1.30;;;13.20;99.40;;;;;;5038815;28;20026;-71
2023/10/05 00:14:12;;;;;;;4.45;1.25;;;13.20;99.60;;;;;;5037255;28;20033;-71
2023/10/05 00:16:43;;;;;;;3.05;1.00;;;13.10;99.50;;;;;;5038804;28;20040;-70
2023/10/05 00:19:11;;;;;;;2.70;0.90;;;13.10;99.40;;;;;;5038703;28;20071;-70
2023/10/05 00:21:48;;;;;;;3.33;0.90;;;13.10;99.40;;;;;;5038450;28;20100;-70
2023/10/05 00:24:15;;;;;;;2.50;0.95;;;13.10;99.70;;;;;;5038507;28;20019;-70
2023/10/05 00:26:43;;;;;;;2.00;0.73;;;13.10;99.90;;;;;;5038578;28;20029;-70
2023/10/05 00:31:39;;;;;;;2.45;1.13;;;13.00;99.90;;;;;;5038675;28;20026;-72
2023/10/05 00:36:49;;;;;;;3.28;1.10;;;13.00;99.90;;;;;;5038339;28;20030;-72
2023/10/05 00:39:20;;;;;;;2.22;0.82;;;12.90;99.90;;;;;;5037167;28;20021;-72
2023/10/05 00:41:49;;;;;;;3.22;1.17;;;12.80;99.80;;;;;;5037916;28;20022;-71
2023/10/05 00:44:15;;;;;;;2.80;1.08;;;12.80;99.90;;;;;;5038107;28;20024;-72
2023/10/05 00:46:48;;;;;;;3.00;1.10;;;12.70;99.90;;;;;;5037921;28;20454;-72
2023/10/05 00:49:19;;;;;;;2.58;1.10;;;12.70;99.90;;;;;;5038075;28;20021;-71
2023/10/05 00:54:31;;;;;;;3.75;1.13;;;12.70;99.90;;;;;;5038263;28;20124;-72
2023/10/05 00:57:05;;;;;;;2.80;0.93;;;12.60;99.90;;;;;;5036685;28;20034;-71
2023/10/05 00:59:32;;;;;;;3.17;0.93;;;12.60;99.90;;;;;;5037558;28;20080;-71
2023/10/05 01:04:34;;;;;;;2.92;1.00;;;12.60;99.90;;;;;;5037974;28;20021;-71
2023/10/05 01:07:17;;;;;;;4.05;1.23;;;12.50;99.90;;;;;;5037961;28;20060;-71
2023/10/05 01:14:53;;;;;;;2.65;0.88;;;12.40;99.90;;;;;;5038366;28;20485;-71
2023/10/05 01:17:26;;;;;;;1.58;0.80;;;12.40;99.90;;;;;;5036194;28;20021;-71
2023/10/05 01:19:58;;;;;;;2.03;0.98;;;12.30;99.90;;;;;;5038000;28;20025;-72
2023/10/05 01:22:40;;;;;;;3.03;1.17;;;12.30;99.90;;;;;;5037586;28;20487;-71
2023/10/05 01:25:08;;;;;;;3.20;1.00;;;12.20;99.90;;;;;;5037558;28;20037;-71
2023/10/05 01:27:38;;;;;;;1.77;1.00;;;12.10;99.90;;;;;;5035834;28;20112;-71
2023/10/05 01:30:04;;;;;;;1.58;0.88;;;12.10;99.90;;;;;;5037397;28;20489;-70
2023/10/05 01:32:32;;;;;;;2.20;1.10;;;12.10;99.90;;;;;;5037605;28;20072;-71
2023/10/05 01:34:59;;;;;;;3.47;1.20;;;12.00;99.90;;;;;;5037387;28;20021;-71
2023/10/05 01:37:30;;;;;;;2.72;1.10;;;12.00;99.90;;;;;;5035769;28;20026;-71
2023/10/05 01:39:59;;;;;;;5.03;1.30;;;12.00;99.90;;;;;;5035649;28;20405;-70
2023/10/05 01:42:25;;;;;;;2.75;0.90;;;11.90;99.90;;;;;;5037082;28;20037;-70
2023/10/05 01:44:51;;;;;;;5.03;1.10;;;11.90;99.90;;;;;;5037087;28;20025;-70
2023/10/05 01:47:18;;;;;;;2.58;1.08;;;11.90;99.90;;;;;;5035692;28;20445;-70
2023/10/05 01:49:45;;;;;;;3.95;1.27;;;11.90;99.90;;;;;;5036961;28;20033;-70
2023/10/05 01:52:16;;;;;;;2.15;1.08;;;11.90;99.90;;;;;;5037421;28;20025;-71
2023/10/05 01:54:45;;;;;;;2.28;1.05;;;11.90;99.90;;;;;;5036441;28;20057;-71
2023/10/05 01:57:13;;;;;;;4.05;1.00;;;11.90;99.90;;;;;;5036828;28;20017;-70
2023/10/05 01:59:40;;;;;;;2.72;1.08;;;11.90;99.90;;;;;;5035603;28;20034;-69
2023/10/05 02:02:13;;;;;;;1.73;0.88;;;11.80;99.90;;;;;;5037140;28;20456;-69
2023/10/05 02:04:49;;;;;;;2.75;1.08;;;11.80;99.90;;;;;;5035574;28;20029;-69
2023/10/05 02:07:15;;;;;;;2.60;0.90;;;11.80;99.90;;;;;;5035713;28;20033;-69
2023/10/05 02:09:41;;;;;;;2.65;1.20;;;11.80;99.90;;;;;;5036899;28;20087;-69
2023/10/05 02:12:07;;;;;;;2.05;1.00;;;11.80;99.90;;;;;;5036799;28;20473;-69
2023/10/05 02:14:39;;;;;;;4.13;1.15;;;11.70;99.90;;;;;;5035585;28;20033;-70
2023/10/05 02:17:07;;;;;;;3.78;1.00;;;11.70;99.90;;;;;;5035473;28;20029;-69
2023/10/05 02:19:36;;;;;;;3.33;1.00;;;11.70;99.90;;;;;;5037012;28;20021;-70
2023/10/05 02:22:04;;;;;;;2.75;1.02;;;11.60;99.90;;;;;;5036739;28;20028;-70
2023/10/05 02:24:34;;;;;;;2.83;1.00;;;11.60;99.90;;;;;;5037223;28;20474;-70
2023/10/05 02:29:31;;;;;;;2.67;1.10;;;11.50;99.90;;;;;;5040627;28;20394;-70
2023/10/05 02:34:38;;;;;;;2.63;1.13;;;11.50;99.90;;;;;;5041064;28;20057;-71
2023/10/05 02:37:08;;;;;;;2.47;1.05;;;11.50;99.90;;;;;;5040455;28;20036;-71
2023/10/05 02:39:37;;;;;;;3.30;1.08;;;11.40;99.90;;;;;;5040569;28;20021;-71
2023/10/05 02:42:05;;;;;;;2.08;1.00;;;11.40;99.90;;;;;;5040188;28;20153;-71
2023/10/05 02:44:35;;;;;;;2.25;0.95;;;11.40;99.90;;;;;;5040717;28;20025;-70
2023/10/05 02:47:02;;;;;;;2.58;0.98;;;11.40;99.90;;;;;;5040225;28;20112;-70
2023/10/05 02:49:28;;;;;;;2.67;1.20;;;11.40;99.90;;;;;;5041826;28;20053;-70
2023/10/05 02:51:54;;;;;;;3.80;1.05;;;11.30;99.90;;;;;;5040775;28;20025;-69
2023/10/05 02:54:22;;;;;;;3.42;1.10;;;11.30;99.90;;;;;;5039039;28;20036;-70
2023/10/05 02:56:48;;;;;;;3.15;1.13;;;11.30;99.90;;;;;;5039015;28;20112;-70
2023/10/05 02:59:20;;;;;;;2.22;0.82;;;11.20;99.90;;;;;;5039538;28;20041;-70
2023/10/05 03:01:46;;;;;;;2.67;1.02;;;11.20;99.90;;;;;;5040149;28;20021;-70
2023/10/05 03:06:40;;;;;;;3.72;1.00;;;11.20;99.90;;;;;;5040333;28;20471;-69
2023/10/05 03:09:09;;;;;;;2.22;1.00;;;11.10;99.90;;;;;;5038090;28;20057;-69
2023/10/05 03:11:40;;;;;;;3.05;1.38;;;11.10;99.90;;;;;;5039916;28;20513;-69
2023/10/05 03:14:09;;;;;;;3.17;0.85;;;11.00;99.90;;;;;;5039559;28;20045;-69
2023/10/05 03:16:43;;;;;;;2.75;1.17;;;11.00;99.90;;;;;;5040034;28;20048;-69
2023/10/05 03:19:21;;;;;;;;;;;11.00;99.90;;;;;;5040208;28;20053;-69
2023/10/05 03:21:52;;;;;;;2.65;1.00;;;11.00;99.90;;;;;;5038553;28;19927;-69
2023/10/05 03:24:19;;;;;;;2.13;0.95;;;11.00;99.90;;;;;;5039629;28;20079;-69
2023/10/05 03:26:47;;;;;;;3.15;0.75;;;11.00;99.90;;;;;;5039805;28;20040;-69
2023/10/05 03:29:13;;;;;;;3.08;1.00;;;11.00;99.90;;;;;;5038301;28;20056;-69
2023/10/05 03:31:52;;;;;;;1.85;0.80;;;10.90;99.90;;;;;;5039524;28;20064;-69
2023/10/05 03:34:18;;;;;;;3.05;0.88;;;10.90;99.90;;;;;;5038354;28;20474;-69
2023/10/05 03:36:47;;;;;;;3.22;1.00;;;10.90;99.90;;;;;;5038607;28;20087;-70
2023/10/05 03:39:13;;;;;;;3.13;0.95;;;10.90;99.90;;;;;;5039770;28;20474;-70
2023/10/05 03:41:39;;;;;;;2.88;1.10;;;10.90;99.90;;;;;;5039249;28;20493;-70
2023/10/05 03:44:07;;;;;;;2.95;0.80;;;10.90;99.90;;;;;;5038974;28;20025;-70
2023/10/05 03:46:36;;;;;;;3.15;1.10;;;10.80;99.90;;;;;;5039321;28;20022;-70
2023/10/05 03:49:02;;;;;;;2.15;1.00;;;10.80;99.90;;;;;;5039346;28;20053;-70
2023/10/05 03:51:29;;;;;;;1.58;0.82;;;10.70;99.90;;;;;;5039069;28;20040;-70
2023/10/05 03:53:55;;;;;;;2.25;0.88;;;10.70;99.90;;;;;;5039443;28;20052;-71
2023/10/05 03:56:23;;;;;;;2.13;0.80;;;10.70;99.90;;;;;;5044906;28;20029;-71
2023/10/05 03:58:52;;;;;;;2.30;1.20;;;10.70;99.90;;;;;;5040983;28;20037;-70
2023/10/05 04:01:18;;;;;;;3.53;0.98;;;10.70;99.90;;;;;;5037359;28;20025;-70
2023/10/05 04:03:46;;;;;;;1.33;0.70;;;10.70;99.90;;;;;;5038479;28;20020;-71
2023/10/05 04:06:26;;;;;;;2.33;0.85;;;10.70;99.90;;;;;;5038386;28;20414;-70
2023/10/05 04:09:00;;;;;;;1.77;0.98;;;10.70;99.90;;;;;;5036917;28;20057;-70
2023/10/05 04:11:26;;;;;;;2.25;0.80;;;10.60;99.90;;;;;;5035704;28;20099;-69
2023/10/05 04:13:55;;;;;;;2.30;0.98;;;10.60;99.90;;;;;;5036796;28;20036;-70
2023/10/05 04:16:28;;;;;;;2.05;0.93;;;10.60;99.90;;;;;;5038288;28;20022;-70
2023/10/05 04:18:54;;;;;;;2.45;0.90;;;10.60;99.90;;;;;;5038343;28;20386;-70
2023/10/05 04:21:23;;;;;;;2.90;1.10;;;10.60;99.90;;;;;;5038250;28;20032;-70
2023/10/05 04:23:49;;;;;;;2.33;0.90;;;10.60;99.90;;;;;;5043015;28;20025;-70
2023/10/05 04:26:19;;;;;;;2.65;1.20;;;10.50;99.90;;;;;;5036774;28;20032;-70
2023/10/05 04:28:52;;;;;;;2.72;0.95;;;10.50;99.90;;;;;;5035461;28;20110;-70
2023/10/05 04:31:25;;;;;;;2.45;1.00;;;10.50;99.90;;;;;;5038020;28;20172;-70
2023/10/05 04:33:52;;;;;;;3.70;0.95;;;10.50;99.90;;;;;;5036868;28;20025;-70
2023/10/05 04:36:22;;;;;;;3.15;0.98;;;10.50;99.90;;;;;;5037888;28;20394;-70
2023/10/05 04:38:48;;;;;;;2.47;1.05;;;10.50;99.90;;;;;;5037731;28;20018;-70
2023/10/05 04:41:13;;;;;;;1.70;1.02;;;10.50;99.90;;;;;;5036773;28;20068;-70
2023/10/05 04:43:43;;;;;;;3.45;1.08;;;10.50;99.90;;;;;;5037460;28;20025;-70
2023/10/05 04:46:09;;;;;;;2.63;1.00;;;10.50;99.90;;;;;;5036440;28;20026;-70
2023/10/05 04:48:38;;;;;;;2.78;1.00;;;10.50;99.90;;;;;;5036478;28;20646;-70
2023/10/05 04:51:06;;;;;;;4.72;1.17;;;10.50;99.90;;;;;;5036719;28;20486;-70
2023/10/05 04:53:33;;;;;;;3.05;1.00;;;10.50;99.90;;;;;;5038185;28;20109;-70
2023/10/05 04:56:27;;;;;;;4.25;1.20;;;10.40;99.90;;;;;;5037537;28;20036;-70
2023/10/05 04:58:53;;;;;;;2.50;0.93;;;10.40;99.90;;;;;;5037640;28;20045;-70
2023/10/05 05:01:29;;;;;;;1.92;0.95;;;10.40;99.90;;;;;;5037790;28;20037;-70
2023/10/05 05:03:56;;;;;;;3.72;1.30;;;10.40;99.90;;;;;;5037855;28;20487;-70
2023/10/05 05:06:25;;;;;;;3.15;1.20;;;10.40;99.90;;;;;;5036347;28;20024;-69
2023/10/05 05:08:51;;;;;;;2.80;1.30;;;10.30;99.90;;;;;;5037851;28;20461;-69
2023/10/05 05:11:21;;;;;;;4.70;1.17;;;10.30;99.90;;;;;;5037447;28;20034;-69
2023/10/05 05:13:48;;;;;;;2.95;1.20;;;10.30;99.90;;;;;;5035988;28;20025;-70
2023/10/05 05:16:18;;;;;;;2.35;1.10;;;10.30;99.90;;;;;;5037998;28;20036;-72
2023/10/05 05:18:44;;;;;;;3.42;1.40;;;10.30;99.90;;;;;;5037512;28;20095;-72
2023/10/05 05:21:11;;;;;;;3.35;1.08;;;10.20;99.90;;;;;;5037704;28;20021;-72
2023/10/05 05:23:37;;;;;;;3.20;1.02;;;10.20;99.90;;;;;;5035235;28;20017;-72
2023/10/05 05:26:10;;;;;;;2.72;1.00;;;10.20;99.90;;;;;;5037255;28;20198;-72
2023/10/05 05:28:37;;;;;;;;;;;10.10;99.90;;;;;;5037530;28;20037;-72
2023/10/05 05:31:07;;;;;;;3.00;1.00;;;10.10;99.90;;;;;;5037273;28;20735;-72
2023/10/05 05:33:36;;;;;;;2.75;1.25;;;10.10;99.90;;;;;;5037282;28;20076;-73
2023/10/05 05:36:11;;;;;;;3.85;1.10;;;10.00;99.90;;;;;;5037085;28;20021;-71
2023/10/05 05:38:38;;;;;;;3.33;1.20;;;10.00;99.90;;;;;;5036915;28;20437;-71
2023/10/05 05:41:19;;;;;;;2.42;1.10;;;10.00;99.90;;;;;;5035644;28;20028;-71
2023/10/05 05:43:45;;;;;;;1.75;1.00;;;9.90;99.90;;;;;;5022549;28;20502;-70
2023/10/05 05:46:14;;;;;;;2.65;1.23;;;10.00;99.90;;;;;;5036662;28;20490;-70
2023/10/05 05:48:43;;;;;;;2.80;1.05;;;9.90;99.90;;;;;;5036201;28;20025;-70
2023/10/05 05:51:15;;;;;;;2.13;1.23;;;9.90;99.90;;;;;;5035307;28;20052;-70
2023/10/05 05:53:46;;;;;;;4.78;1.23;;;10.00;99.90;;;;;;5035261;28;20041;-69
2023/10/05 05:56:19;;;;;;;3.58;1.10;;;9.90;99.90;;;;;;5036610;28;20055;-70
2023/10/05 05:58:50;;;;;;;3.47;1.03;;;9.90;99.90;;;;;;5036122;28;20076;-69
2023/10/05 06:01:16;;;;;;;5.05;1.30;;;9.90;99.90;;;;;;5033921;28;20113;-70
2023/10/05 06:03:47;;;;;;;2.95;1.33;;;9.90;99.90;;;;;;5036491;28;20014;-69
2023/10/05 06:06:12;;;;;;;1.65;1.13;;;9.90;99.90;;;;;;5035556;28;20457;-70
2023/10/05 06:08:40;;;;;;;3.10;1.23;;;10.00;99.90;;;;;;5036627;28;20050;-69
2023/10/05 06:11:08;;;;;;;2.92;1.10;;;10.00;99.90;;;;;;5036202;28;20087;-69
2023/10/05 06:13:36;;;;;;;2.30;1.20;;;10.00;99.90;;;;;;5034753;28;20025;-69
2023/10/05 06:16:13;;;;;;;3.22;1.10;;;10.10;99.90;;;;;;5035355;28;20063;-69
2023/10/05 06:18:38;;;;;;;3.45;1.20;;;10.10;99.90;;;;;;5035355;28;20045;-69
2023/10/05 06:21:05;;;;;;;3.60;1.50;;;10.10;99.90;;;;;;5036337;28;20025;-69
2023/10/05 06:23:33;;;;;;;2.63;1.50;;;10.10;99.90;;;;;;5036110;28;20022;-69
2023/10/05 06:25:59;;;;;;;2.25;1.02;;;10.10;99.90;;;;;;5036355;28;20022;-69
2023/10/05 06:28:26;;;;;;;3.38;1.38;;;10.20;99.90;;;;;;5035946;28;20026;-69
2023/10/05 06:30:53;;;;;;;6.20;1.52;;;10.20;99.90;;;;;;5036604;28;20033;-69
2023/10/05 06:33:19;;;;;;;3.90;1.25;;;10.30;99.90;;;;;;5036248;28;20117;-69
2023/10/05 06:35:46;;;;;;;3.38;1.20;;;10.40;99.90;;;;;;5034965;28;20466;-71
2023/10/05 06:38:12;;;;;;;2.00;1.17;;;10.50;99.90;;;;;;5035035;28;20128;-71
2023/10/05 06:40:38;;;;;;;3.58;1.50;;;10.50;99.90;;;;;;5036097;28;20450;-71
2023/10/05 06:43:05;;;;;;;2.97;1.45;;;10.70;99.90;;;;;;5034604;28;20018;-72
2023/10/05 06:45:31;;;;;;;2.78;1.30;;;10.70;99.90;;;;;;5035140;28;20343;-71
2023/10/05 06:47:57;;;;;;;2.20;1.15;;;10.70;99.90;;;;;;5035887;28;20505;-70
2023/10/05 06:50:23;;;;;;;3.08;1.50;;;10.80;99.90;;;;;;5034274;28;20139;-70
2023/10/05 06:52:49;;;;;;;3.63;1.23;;;10.90;99.90;;;;;;5035757;28;20034;-70
2023/10/05 06:55:21;;;;;;;2.53;1.23;;;10.90;99.90;;;;;;5036308;28;20031;-69
2023/10/05 06:57:50;;;;;;;3.85;1.35;;;11.00;99.90;;;;;;5035620;28;20067;-72
2023/10/05 07:00:20;;;;;;;2.65;1.20;;;11.00;99.90;;;;;;5034429;28;20108;-71
2023/10/05 07:02:47;;;;;;;3.40;1.30;;;11.10;99.90;;;;;;5034496;28;20032;-71
2023/10/05 07:05:13;;;;;;;4.53;1.55;;;11.10;99.90;;;;;;5034703;28;20055;-70
2023/10/05 07:07:40;;;;;;;3.85;1.77;;;11.20;99.90;;;;;;5035972;28;20109;-71
2023/10/05 07:10:13;;;;;;;3.45;1.63;;;11.10;99.90;;;;;;5036195;28;20375;-67
2023/10/05 07:12:41;;;;;;;6.05;1.75;;;11.00;99.90;;;;;;5039436;28;20037;-68
2023/10/05 07:15:08;;;;;;;3.95;1.83;;;11.00;99.90;;;;;;5040126;28;20025;-67
2023/10/05 07:17:34;;;;;;;3.58;1.40;;;11.10;99.90;;;;;;5039960;28;20398;-67
2023/10/05 07:20:01;;;;;;;3.47;1.73;;;11.20;99.90;;;;;;5039879;28;20029;-68
2023/10/05 07:22:27;;;;;;;3.05;1.20;;;11.20;99.90;;;;;;5039530;28;20076;-68
2023/10/05 07:24:53;;;;;;;5.22;1.50;;;11.20;99.90;;;;;;5039790;28;20075;-68
2023/10/05 07:27:19;;;;;;;3.67;1.35;;;11.30;99.90;;;;;;5039559;28;20029;-68
2023/10/05 07:29:45;;;;;;;2.92;1.42;;;11.30;99.90;;;;;;5039989;28;20022;-67
2023/10/05 07:32:12;;;;;;;4.40;1.50;;;11.30;99.90;;;;;;5037408;28;20112;-68
2023/10/05 07:34:39;;;;;;;3.42;1.30;;;11.30;99.90;;;;;;5040310;28;20021;-68
2023/10/05 07:37:05;;;;;;;4.80;1.73;;;11.30;99.90;;;;;;5039752;28;20024;-68
2023/10/05 07:39:31;;;;;;;5.88;1.63;;;11.40;99.90;;;;;;5039071;28;20026;-71
2023/10/05 07:41:59;;;;;;;6.95;1.98;;;11.40;99.90;;;;;;5038188;28;20056;-71
2023/10/05 07:44:27;;;;;;;2.88;1.70;;;11.50;99.90;;;;;;5038146;28;20021;-71
2023/10/05 07:46:53;;;;;;;4.88;2.20;;;11.60;99.90;;;;;;5039169;28;20498;-72
2023/10/05 07:49:20;;;;;;;7.78;2.10;;;11.60;99.90;;;;;;5049550;28;20053;-71
2023/10/05 07:51:46;;;;;;;3.45;1.90;;;11.70;99.90;;;;;;5039594;28;20490;-71
2023/10/05 07:54:11;;;;;;;3.53;1.75;;;11.70;99.90;;;;;;5037588;28;20025;-70
2023/10/05 07:56:37;;;;;;;3.80;1.85;;;11.80;99.90;;;;;;5037429;28;20083;-71
2023/10/05 07:59:03;;;;;;;4.40;1.80;;;11.90;99.90;;;;;;5037919;28;20057;-68
2023/10/05 08:01:29;;;;;;;4.03;2.22;;;12.10;99.90;;;;;;5038235;28;20009;-68
2023/10/05 08:03:55;;;;;;;5.55;2.17;;;12.20;99.90;;;;;;5038438;28;20037;-68
2023/10/05 08:06:20;;;;;;;2.97;1.95;;;12.20;99.90;;;;;;5039173;28;20024;-68
2023/10/05 08:08:47;;;;;;;4.60;2.15;;;12.20;99.90;;;;;;5038723;28;20114;-68
2023/10/05 08:11:13;;;;;;;4.43;2.05;;;12.30;99.90;;;;;;5038261;28;20033;-67
2023/10/05 08:13:42;;;;;;;4.15;2.10;;;12.40;99.90;;;;;;5037382;28;20030;-70
2023/10/05 08:16:08;;;;;;;5.18;2.10;;;12.50;99.90;;;;;;5038807;28;20036;-66
2023/10/05 08:18:35;;;;;;;4.70;2.13;;;12.60;99.90;;;;;;5038850;28;20025;-71
2023/10/05 08:21:02;;;;;;;4.63;2.05;;;12.60;99.90;;;;;;5038801;28;20022;-70
2023/10/05 08:23:28;;;;;;;5.65;2.25;;;12.70;99.90;;;;;;5038714;28;20018;-72
2023/10/05 08:25:57;;;;;;;3.85;1.98;;;12.80;99.90;;;;;;5037299;28;20458;-71
2023/10/05 08:28:24;;;;;;;5.45;2.17;;;12.90;99.90;;;;;;5038048;28;20030;-71
2023/10/05 08:31:06;;;;;;;4.53;2.00;;;12.90;99.90;;;;;;5037033;28;20036;-71
2023/10/05 08:33:35;;;;;;;4.68;2.00;;;13.00;99.90;;;;;;5038313;28;20561;-68
2023/10/05 08:36:06;;;;;;;6.30;2.20;;;13.10;99.90;;;;;;5038458;28;20022;-67
2023/10/05 08:38:33;;;;;;;3.75;1.70;;;13.10;99.90;;;;;;5038131;28;20037;-66
2023/10/05 08:41:01;;;;;;;4.85;2.13;;;13.10;99.90;;;;;;5038892;28;20133;-67
2023/10/05 08:43:27;;;;;;;4.78;2.00;;;13.20;99.90;;;;;;5036649;28;20038;-69
2023/10/05 08:46:01;;;;;;;4.57;2.00;;;13.20;99.90;;;;;;5038364;28;20021;-66
2023/10/05 08:48:28;;;;;;;4.85;2.20;;;13.20;99.90;;;;;;5038090;28;20029;-66
2023/10/05 08:51:04;;;;;;;3.88;2.00;;;13.20;99.90;;;;;;5038140;28;20028;-65
2023/10/05 08:53:30;;;;;;;5.22;2.33;;;13.20;99.90;;;;;;5038297;28;20371;-70
2023/10/05 08:55:58;;;;;;;4.93;1.80;;;13.40;99.90;;;;;;5030327;28;20080;-72
2023/10/05 08:58:24;;;;;;;5.57;2.22;;;13.50;99.90;;;;;;5027910;28;20075;-68
2023/10/05 09:00:49;;;;;;;4.28;2.20;;;13.70;99.90;;;;;;5037752;28;20548;-68
2023/10/05 09:06:13;;;;;;;5.30;2.17;;;13.80;99.90;;;;;;5028723;28;20053;-68
2023/10/05 09:09:08;;;;;;;5.38;2.35;;;13.90;99.90;;;;;;5037883;28;20037;-68
2023/10/05 09:11:34;;;;;;;4.30;1.77;;;14.00;99.90;;;;;;5035985;28;20513;-67
2023/10/05 09:14:12;;;;;;;5.40;1.67;;;14.10;99.90;;;;;;5032466;28;20120;-68
2023/10/05 09:16:43;;;;;;;4.00;1.83;;;14.10;99.90;;;;;;5037839;28;20025;-68
2023/10/05 09:19:29;;;;;;;4.10;1.80;;;14.10;99.90;;;;;;5037592;28;20535;-68
2023/10/05 09:24:24;;;;;;;3.92;1.92;;;14.30;99.90;;;;;;5037691;28;20462;-67
2023/10/05 09:26:51;;;;;;;3.90;1.70;;;14.40;99.90;;;;;;5036864;28;20029;-68
2023/10/05 09:29:23;;;;;;;5.07;1.75;;;14.50;99.90;;;;;;5035875;28;20029;-72
2023/10/05 09:31:56;;;;;;;4.60;2.08;;;14.50;99.90;;;;;;5035926;28;20045;-72
2023/10/05 09:34:38;;;;;;;2.75;1.25;;;14.60;99.90;;;;;;5037153;28;20025;-72
2023/10/05 09:37:06;;;;;;;5.00;2.05;;;14.70;99.90;;;;;;5037041;28;20121;-71
2023/10/05 09:39:53;;;;;;;4.80;1.85;;;14.70;99.90;;;;;;5037939;28;20474;-70
2023/10/05 09:42:26;;;;;;;3.80;1.90;;;14.80;99.90;;;;;;5030617;28;20056;-72
2023/10/05 09:45:06;;;;;;;2.53;1.40;;;14.90;99.90;;;;;;5035929;28;20108;-67
2023/10/05 09:47:34;;;;;;;3.85;1.45;;;15.00;99.90;;;;;;5037246;28;20470;-66
2023/10/05 09:50:09;;;;;;;4.97;1.70;;;15.10;99.90;;;;;;5037030;28;20060;-66
2023/10/05 09:52:37;;;;;;;4.78;1.63;;;15.20;99.90;;;;;;5037025;28;20032;-67
2023/10/05 09:55:07;;;;;;;3.45;1.48;;;15.30;99.90;;;;;;5035530;28;20033;-72
2023/10/05 09:57:57;;;;;;;5.60;1.38;;;15.40;99.90;;;;;;5036417;28;20026;-71
2023/10/05 10:02:56;;;;;;;4.10;1.67;;;15.70;99.90;;;;;;5036957;28;20026;-66
2023/10/05 10:05:29;;;;;;;5.55;1.58;;;15.80;99.90;;;;;;5035407;28;20021;-68
2023/10/05 10:07:57;;;;;;;;;;;16.00;99.90;;;;;;5035989;28;20053;-66
2023/10/05 10:10:24;;;;;;;4.18;1.20;;;16.10;99.90;;;;;;5035668;28;19906;-67
2023/10/05 10:12:52;;;;;;;3.78;1.38;;;16.10;99.90;;;;;;5036903;28;20022;-65
2023/10/05 10:15:33;;;;;;;6.47;1.52;;;16.20;99.90;;;;;;5036725;28;20044;-65
2023/10/05 10:18:14;;;;;;;3.10;1.30;;;16.20;99.90;;;;;;5035280;28;20072;-65
2023/10/05 10:20:51;;;;;;;6.88;1.50;;;16.20;99.90;;;;;;5036282;28;20025;-65
2023/10/05 10:23:26;;;;;;;4.07;1.40;;;16.20;99.90;;;;;;5036845;28;20037;-66
2023/10/05 10:26:12;;;;;;;10.15;2.70;;;16.20;99.90;;;;;;5036456;28;20026;-66
2023/10/05 10:31:13;;;;;;;2.67;1.20;;;16.50;99.90;;;;;;5036626;28;20124;-66
2023/10/05 10:33:40;;;;;;;2.45;0.90;;;16.50;99.90;;;;;;5036695;28;20045;-66
2023/10/05 10:36:18;;;;;;;4.35;1.38;;;16.60;99.70;;;;;;5036830;28;20120;-68
2023/10/05 10:38:45;;;;;;;2.90;1.00;;;16.70;99.80;;;;;;5036118;28;20036;-67
2023/10/05 10:41:11;;;;;;;4.93;1.27;;;16.70;98.70;;;;;;5035635;28;20344;-68
2023/10/05 10:43:37;;;;;;;6.18;1.35;;;16.80;98.10;;;;;;5036407;28;20032;-69
2023/10/05 10:46:13;;;;;;;3.60;1.15;;;16.90;96.60;;;;;;5037269;28;20479;-71
2023/10/05 10:48:58;;;;;;;4.05;1.10;;;17.00;96.30;;;;;;5039152;28;20032;-76
2023/10/05 10:51:31;;;;;;;5.07;1.30;;;17.00;97.10;;;;;;5040471;28;20045;-67
2023/10/05 10:53:58;;;;;;;;;;;17.00;95.80;;;;;;5040811;28;20100;-73
2023/10/05 10:56:28;;;;;;;3.47;0.80;;;17.10;98.10;;;;;;5038659;28;19912;-73
2023/10/05 10:59:13;;;;;;;3.10;1.17;;;17.10;96.00;;;;;;5039649;28;20041;-68
2023/10/05 11:01:43;;;;;;;3.08;1.10;;;17.20;95.10;;;;;;5040149;28;20048;-67
2023/10/05 11:04:23;;;;;;;3.03;0.85;;;17.20;94.30;;;;;;5039969;28;20113;-77
2023/10/05 11:06:58;;;;;;;3.00;1.05;;;17.20;95.60;;;;;;5039854;28;20020;-70
2023/10/05 11:09:35;;;;;;;3.10;1.30;;;17.20;95.20;;;;;;5039885;28;20025;-74
2023/10/05 11:12:11;;;;;;;3.80;1.30;;;17.30;94.40;;;;;;5039316;28;20474;-78
2023/10/05 11:14:38;;;;;;;6.03;1.15;;;17.30;93.60;;;;;;5038333;28;20040;-68
2023/10/05 11:17:11;;;;;;;4.18;1.10;;;17.30;93.10;;;;;;5038005;28;20067;-69
2023/10/05 11:19:38;;;;;;;;;;;17.40;93.40;;;;;;5040197;28;20030;-68
2023/10/05 11:22:07;;;;;;;2.90;1.05;;;17.40;96.50;;;;;;5039369;28;19905;-68
2023/10/05 11:24:39;;;;;;;2.17;0.75;;;17.50;92.80;;;;;;5039682;28;20026;-68
2023/10/05 11:27:14;;;;;;;;;;;17.50;92.40;;;;;;5039571;28;20025;-68
2023/10/05 11:29:48;;;;;;;2.88;0.90;;;17.50;94.80;;;;;;5031247;28;19959;-70
2023/10/05 11:32:19;;;;;;;2.70;0.90;;;17.50;92.60;;;;;;5038850;28;20025;-69
2023/10/05 11:34:46;;;;;;;3.53;1.00;;;17.60;93.00;;;;;;5039602;28;20497;-67
2023/10/05 11:37:16;;;;;;;3.58;1.10;;;17.60;91.80;;;;;;5039275;28;20018;-70
2023/10/05 11:39:49;;;;;;;2.28;0.90;;;17.70;92.10;;;;;;5039086;28;20032;-70
2023/10/05 11:42:24;;;;;;;2.83;0.80;;;17.70;90.70;;;;;;5033228;28;20041;-69
2023/10/05 11:44:53;;;;;;;2.22;1.10;;;17.80;91.50;;;;;;5038378;28;20034;-70
2023/10/05 11:47:41;;;;;;;4.15;1.10;;;17.90;91.70;;;;;;5038037;28;20044;-70
2023/10/05 11:50:08;;;;;;;4.50;1.05;;;17.90;91.40;;;;;;5038979;28;20390;-69
2023/10/05 11:52:38;;;;;;;2.03;0.98;;;17.90;90.90;;;;;;5039311;28;20029;-70
2023/10/05 11:55:07;;;;;;;2.63;1.00;;;18.00;90.60;;;;;;5037883;28;20040;-70
2023/10/05 11:57:33;;;;;;;4.95;1.10;;;18.00;90.80;;;;;;5038058;28;20018;-70
2023/10/05 12:00:04;;;;;;;3.45;1.30;;;18.10;90.10;;;;;;5039203;28;20100;-70
2023/10/05 12:02:30;;;;;;;3.65;1.35;;;18.10;89.50;;;;;;5039114;28;20018;-69
2023/10/05 12:04:56;;;;;;;2.47;1.23;;;18.20;89.60;;;;;;5039112;28;20017;-70
2023/10/05 12:07:25;;;;;;;2.40;1.13;;;18.20;87.40;;;;;;5033380;28;20021;-70
2023/10/05 12:09:50;;;;;;;4.88;1.13;;;18.20;86.90;;;;;;5038893;28;20025;-70
2023/10/05 12:12:18;;;;;;;3.83;1.00;;;18.10;88.30;;;;;;5038777;28;20029;-70
2023/10/05 12:14:44;;;;;;;2.17;0.95;;;18.20;87.50;;;;;;5038906;28;20030;-70
2023/10/05 12:17:10;;;;;;;1.95;0.70;;;18.30;87.60;;;;;;5037416;28;20441;-70
2023/10/05 12:19:35;;;;;;;3.13;0.90;;;18.40;87.30;;;;;;5038929;28;20026;-70
2023/10/05 12:22:02;;;;;;;3.17;0.95;;;18.40;85.50;;;;;;5038668;28;20022;-69
2023/10/05 12:24:30;;;;;;;4.88;1.00;;;18.50;85.20;;;;;;5038759;28;20087;-70
2023/10/05 12:26:59;;;;;;;3.20;1.10;;;18.50;85.90;;;;;;5038295;28;20100;-70
2023/10/05 12:29:25;;;;;;;3.08;0.90;;;18.60;84.00;;;;;;5038735;28;20029;-70
2023/10/05 12:31:51;;;;;;;5.45;1.10;;;18.60;84.20;;;;;;5038560;28;20026;-70
2023/10/05 12:34:23;;;;;;;3.35;1.60;;;18.70;83.80;;;;;;5038654;28;20040;-70
2023/10/05 12:36:49;;;;;;;3.42;1.20;;;18.80;84.00;;;;;;5038434;28;20071;-70
2023/10/05 12:39:26;;;;;;;2.85;1.10;;;18.90;81.00;;;;;;5038442;28;20084;-70
2023/10/05 12:41:54;;;;;;;3.38;1.10;;;18.90;84.30;;;;;;5037796;28;20100;-70
2023/10/05 12:44:20;;;;;;;2.17;1.00;;;19.00;77.10;;;;;;5038444;28;20104;-70
2023/10/05 12:46:47;;;;;;;3.28;0.90;;;19.00;78.50;;;;;;5038238;28;20486;-70
2023/10/05 12:49:14;;;;;;;2.80;1.00;;;18.90;78.60;;;;;;5036904;28;20490;-70
2023/10/05 12:51:41;;;;;;;2.83;1.10;;;19.00;79.70;;;;;;5036821;28;20457;-70
2023/10/05 12:54:18;;;;;;;6.38;1.30;;;19.00;78.30;;;;;;5037910;28;20029;-70
2023/10/05 12:56:49;;;;;;;1.90;0.90;;;18.90;74.50;;;;;;5037629;28;20030;-70
2023/10/05 12:59:15;;;;;;;2.92;1.20;;;18.80;77.20;;;;;;5037829;28;20041;-70
2023/10/05 13:01:41;;;;;;;3.67;1.00;;;18.80;77.70;;;;;;5037960;28;20478;-70
2023/10/05 13:04:11;;;;;;;4.60;1.00;;;18.80;79.30;;;;;;5037750;28;20021;-70
2023/10/05 13:06:38;;;;;;;3.00;1.35;;;18.80;79.30;;;;;;5036340;28;20494;-70
2023/10/05 13:09:11;;;;;;;2.85;1.00;;;18.80;75.20;;;;;;5036778;28;20080;-70
2023/10/05 13:11:40;;;;;;;4.53;1.20;;;18.80;76.30;;;;;;5037001;28;20087;-70
2023/10/05 13:14:08;;;;;;;2.70;1.10;;;18.80;77.20;;;;;;5036987;28;20053;-70
2023/10/05 13:16:38;;;;;;;3.28;1.13;;;18.80;76.80;;;;;;5037323;28;20060;-70
2023/10/05 13:19:09;;;;;;;3.08;1.00;;;18.80;78.00;;;;;;5037502;28;20032;-70
2023/10/05 13:21:35;;;;;;;2.90;0.90;;;18.90;76.80;;;;;;5037863;28;20104;-70
2023/10/05 13:24:02;;;;;;;3.10;1.00;;;18.90;76.80;;;;;;5037617;28;20048;-70
2023/10/05 13:26:29;;;;;;;1.95;0.95;;;19.00;76.80;;;;;;5037522;28;20600;-70
2023/10/05 13:28:59;;;;;;;2.70;1.23;;;19.10;77.00;;;;;;5037463;28;20493;-70
2023/10/05 13:31:25;;;;;;;2.20;1.15;;;19.20;76.50;;;;;;5037739;28;20558;-70
2023/10/05 13:33:54;;;;;;;2.65;1.10;;;19.10;75.80;;;;;;5037407;28;20119;-70
2023/10/05 13:36:21;;;;;;;2.08;1.20;;;19.20;75.00;;;;;;5037525;28;20056;-70